Time;durP1;ratioP1;P1;durP2;ratioP2;P2;SDS_P1;SDS_P2;PMS_P1;PMS_P2;Temp;Humidity;BMP_temperature;BMP_pressure;BME280_temperature;BME280_humidity;BME280_pressure;Samples;Min_cycle;Max_cycle;Signal;HPM_P1;HPM_P2
2022/06/26 00:01:32;;;;;;;5.40;4.90;;;;;;;25.45;51.40;101075.59;5050185;28;20413;-57
2022/06/26 00:03:57;;;;;;;5.63;5.03;;;;;;;25.44;51.56;101065.94;5054710;28;20401;-57
2022/06/26 00:06:23;;;;;;;6.60;5.10;;;;;;;25.43;50.98;101065.06;5034019;28;20477;-57
2022/06/26 00:08:51;;;;;;;5.60;5.00;;;;;;;25.44;50.82;101065.94;5031091;28;20403;-60
2022/06/26 00:11:16;;;;;;;6.90;5.25;;;;;;;25.44;50.64;101076.50;5050921;28;20393;-55
2022/06/26 00:13:45;;;;;;;8.07;5.40;;;;;;;25.44;51.58;101063.31;5066925;28;20420;-57
2022/06/26 00:16:14;;;;;;;5.40;4.90;;;;;;;25.45;50.93;101072.97;5030430;28;20949;-57
2022/06/26 00:18:42;;;;;;;5.90;5.15;;;;;;;25.44;51.60;101065.94;5047689;28;20408;-58
2022/06/26 00:21:08;;;;;;;6.35;5.45;;;;;;;25.45;50.95;101072.97;5068004;28;20405;-57
2022/06/26 00:23:34;;;;;;;6.33;5.00;;;;;;;25.44;51.24;101071.22;5046770;28;20870;-57
2022/06/26 00:26:00;;;;;;;6.57;5.15;;;;;;;25.43;51.55;101069.47;5047909;28;20398;-58
2022/06/26 00:28:28;;;;;;;5.50;4.97;;;;;;;25.43;51.62;101064.19;5053478;28;20492;-57
2022/06/26 00:30:56;;;;;;;8.02;5.03;;;;;;;25.42;51.03;101062.44;5052623;28;20405;-57
2022/06/26 00:33:21;;;;;;;8.07;5.75;;;;;;;25.41;51.13;101071.25;5060465;28;20899;-57
2022/06/26 00:35:47;;;;;;;6.07;5.13;;;;;;;25.41;50.96;101065.97;5043957;28;20393;-59
2022/06/26 00:38:12;;;;;;;6.70;5.07;;;;;;;25.42;51.47;101057.16;5040934;28;20871;-55
2022/06/26 00:40:40;;;;;;;6.87;5.50;;;;;;;25.43;51.04;101058.91;5048650;28;20388;-59
2022/06/26 00:43:06;;;;;;;6.05;5.10;;;;;;;25.43;51.26;101053.66;5031740;28;20382;-55
2022/06/26 00:45:31;;;;;;;5.73;5.10;;;;;;;25.44;50.92;101058.03;5051098;28;20924;-56
2022/06/26 00:47:56;;;;;;;6.97;5.17;;;;;;;25.44;51.29;101056.25;5032245;28;20413;-57
2022/06/26 00:50:24;;;;;;;5.90;5.07;;;;;;;25.43;51.92;101053.66;5048224;28;20508;-58
2022/06/26 00:52:53;;;;;;;6.97;4.97;;;;;;;25.45;50.80;101051.88;5052464;28;20447;-56
2022/06/26 00:55:19;;;;;;;5.68;4.80;;;;;;;25.44;51.17;101050.97;5048858;28;20400;-59
2022/06/26 00:57:45;;;;;;;5.70;4.82;;;;;;;25.42;51.11;101050.13;5047601;28;20411;-59
2022/06/26 01:00:12;;;;;;;5.80;5.20;;;;;;;25.43;51.63;101043.09;5028861;28;20419;-58
2022/06/26 01:02:40;;;;;;;6.35;5.07;;;;;;;25.44;51.40;101044.84;5066570;28;20416;-56
2022/06/26 01:05:07;;;;;;;6.38;5.20;;;;;;;25.42;51.53;101041.34;5025897;28;20399;-57
2022/06/26 01:07:33;;;;;;;6.70;5.05;;;;;;;25.40;51.31;101029.94;5044285;28;20421;-60
2022/06/26 01:09:58;;;;;;;5.70;5.05;;;;;;;25.43;51.04;101037.81;5049335;28;21473;-57
2022/06/26 01:12:24;;;;;;;5.60;5.03;;;;;;;25.44;50.87;101036.94;5046947;28;20480;-58
2022/06/26 01:14:51;;;;;;;5.33;4.83;;;;;;;25.43;51.27;101037.81;5066167;28;20485;-58
2022/06/26 01:17:16;;;;;;;5.27;4.77;;;;;;;25.43;51.17;101043.09;5051795;28;20473;-59
2022/06/26 01:19:42;;;;;;;5.90;5.27;;;;;;;25.36;50.84;101040.50;5052871;28;20863;-57
2022/06/26 01:22:08;;;;;;;5.33;4.70;;;;;;;25.41;51.18;101039.59;5027392;28;22252;-57
2022/06/26 01:24:39;;;;;;;5.60;4.90;;;;;;;25.43;51.12;101048.38;5052328;28;20390;-57
2022/06/26 01:27:06;;;;;;;6.63;5.00;;;;;;;25.43;50.84;101053.66;5039007;28;20433;-57
2022/06/26 01:29:32;;;;;;;6.82;4.63;;;;;;;25.44;51.18;101065.94;5048198;28;20398;-56
2022/06/26 01:31:57;;;;;;;6.40;5.10;;;;;;;25.42;51.27;101057.16;5064099;28;21011;-57
2022/06/26 01:34:25;;;;;;;5.97;5.17;;;;;;;25.44;51.12;101065.94;5031259;28;20386;-58
2022/06/26 01:36:54;;;;;;;6.22;5.20;;;;;;;25.38;51.58;101049.28;5052779;28;20401;-57
2022/06/26 01:39:20;;;;;;;6.13;5.30;;;;;;;25.42;51.14;101062.44;5061415;28;20401;-59
2022/06/26 01:41:47;;;;;;;5.80;5.20;;;;;;;25.42;50.99;101062.44;5064951;28;20433;-56
2022/06/26 01:44:15;;;;;;;6.72;4.90;;;;;;;25.42;51.23;101062.44;5035608;28;20398;-56
2022/06/26 01:46:43;;;;;;;5.60;5.10;;;;;;;25.42;51.49;101062.44;5044353;28;20426;-57
2022/06/26 01:49:14;;;;;;;5.55;4.97;;;;;;;25.43;50.74;101064.19;5034334;28;20395;-58
2022/06/26 01:51:39;;;;;;;5.38;4.88;;;;;;;25.42;51.68;101062.44;5067749;28;20398;-61
2022/06/26 01:54:10;;;;;;;6.10;4.70;;;;;;;25.41;51.29;101056.28;5047738;28;20776;-57
2022/06/26 01:56:36;;;;;;;5.50;5.00;;;;;;;25.43;50.92;101064.19;5033445;28;20428;-57
2022/06/26 01:59:04;;;;;;;5.27;4.77;;;;;;;25.44;50.89;101060.66;5048068;28;20443;-57
2022/06/26 02:01:31;;;;;;;6.35;5.45;;;;;;;25.43;51.36;101064.19;5051388;28;20912;-56
2022/06/26 02:03:57;;;;;;;5.90;4.90;;;;;;;25.43;51.78;101066.84;5034676;28;20445;-58
2022/06/26 02:06:22;;;;;;;5.50;5.00;;;;;;;25.45;51.25;101067.69;5050800;28;20489;-57
2022/06/26 02:08:47;;;;;;;5.23;4.73;;;;;;;25.44;51.40;101065.94;5059642;28;20405;-57
2022/06/26 02:14:00;;;;;;;5.47;4.97;;;;;;;25.43;51.37;101058.91;5045538;28;20398;-57
2022/06/26 02:16:28;;;;;;;6.03;5.10;;;;;;;25.45;51.82;101057.16;5064933;28;20397;-55
2022/06/26 02:18:58;;;;;;;5.85;5.03;;;;;;;25.43;51.85;101056.28;5050342;28;20425;-54
2022/06/26 02:21:27;;;;;;;5.70;5.10;;;;;;;25.43;51.43;101053.66;5026792;28;20404;-57
2022/06/26 02:23:53;;;;;;;5.38;4.85;;;;;;;25.38;51.37;101057.19;5034364;28;20401;-55
2022/06/26 02:26:19;;;;;;;5.43;4.78;;;;;;;25.43;51.01;101054.50;5047313;28;20458;-57
2022/06/26 02:28:46;;;;;;;5.40;4.90;;;;;;;25.42;51.01;101057.16;5041621;28;20421;-55
2022/06/26 02:31:11;;;;;;;5.50;5.00;;;;;;;25.43;51.37;101058.91;5061921;28;20394;-57
2022/06/26 02:33:38;;;;;;;6.23;5.63;;;;;;;25.43;51.01;101053.66;5046147;28;20391;-55
2022/06/26 02:36:05;;;;;;;6.00;5.40;;;;;;;25.45;51.28;101057.16;5046194;28;20394;-56
2022/06/26 02:38:34;;;;;;;5.75;5.25;;;;;;;25.43;50.82;101064.19;5067480;28;20398;-57
2022/06/26 02:41:03;;;;;;;6.00;5.22;;;;;;;25.44;51.00;101061.53;5048231;28;20878;-56
2022/06/26 02:43:28;;;;;;;6.00;5.35;;;;;;;25.43;51.66;101069.47;5028892;28;20399;-57
2022/06/26 02:45:55;;;;;;;5.68;5.10;;;;;;;25.38;50.78;101051.91;5051421;28;20736;-57
2022/06/26 02:48:21;;;;;;;6.13;5.00;;;;;;;25.43;51.18;101062.41;5033291;28;20914;-55
2022/06/26 02:50:47;;;;;;;5.70;5.20;;;;;;;25.42;51.55;101063.31;5050371;28;20397;-57
2022/06/26 02:53:15;;;;;;;5.33;4.83;;;;;;;25.44;52.04;101065.94;5042150;28;20800;-56
2022/06/26 02:55:41;;;;;;;6.60;5.37;;;;;;;25.42;51.98;101063.31;5027158;28;20549;-61
2022/06/26 02:58:09;;;;;;;6.37;5.23;;;;;;;25.43;51.60;101064.19;5025212;28;20814;-56
2022/06/26 03:00:37;;;;;;;7.13;5.45;;;;;;;25.43;50.83;101058.91;5051374;28;20488;-60
2022/06/26 03:03:08;;;;;;;5.70;5.20;;;;;;;25.45;50.99;101057.16;5069230;28;20770;-56
2022/06/26 03:05:33;;;;;;;5.55;4.90;;;;;;;25.45;51.12;101062.44;5040302;28;20497;-56
2022/06/26 03:07:59;;;;;;;5.53;4.93;;;;;;;25.41;51.01;101055.41;5047930;28;20475;-55
2022/06/26 03:10:27;;;;;;;6.15;5.50;;;;;;;25.45;51.49;101065.06;5068931;28;20406;-56
2022/06/26 03:12:52;;;;;;;6.93;5.60;;;;;;;25.44;50.89;101060.66;5066760;28;20398;-57
2022/06/26 03:15:20;;;;;;;6.73;5.20;;;;;;;25.44;50.68;101066.81;5050223;28;20789;-53
2022/06/26 03:17:48;;;;;;;5.93;5.10;;;;;;;25.45;51.73;101067.69;5043934;28;20420;-55
2022/06/26 03:20:18;;;;;;;6.40;5.43;;;;;;;25.44;51.02;101065.94;5042039;28;20393;-58
2022/06/26 03:22:50;;;;;;;6.20;5.07;;;;;;;25.45;51.19;101067.69;5026857;28;20896;-55
2022/06/26 03:25:18;;;;;;;5.90;5.40;;;;;;;25.44;51.22;101071.22;5051220;28;20446;-58
2022/06/26 03:27:43;;;;;;;5.85;5.22;;;;;;;25.43;51.24;101064.19;5044727;28;20885;-57
2022/06/26 03:32:38;;;;;;;8.70;5.63;;;;;;;25.43;51.04;101074.75;4824223;23;20418;-68
2022/06/26 03:35:04;;;;;;;6.13;5.53;;;;;;;25.42;51.35;101067.72;5051736;28;20810;-68
2022/06/26 03:37:29;;;;;;;7.72;5.53;;;;;;;25.36;51.59;101058.97;5035840;28;20668;-68
2022/06/26 03:39:54;;;;;;;6.03;5.33;;;;;;;25.38;50.71;101062.47;5049346;28;20390;-68
2022/06/26 03:42:20;;;;;;;6.78;5.05;;;;;;;25.41;50.83;101065.97;5048483;28;20746;-68
2022/06/26 03:44:45;;;;;;;6.10;5.50;;;;;;;25.45;51.16;101072.97;5051148;28;20401;-68
2022/06/26 03:47:11;;;;;;;7.17;5.47;;;;;;;25.44;50.67;101068.59;5045487;28;20457;-68
2022/06/26 03:49:36;;;;;;;5.70;5.10;;;;;;;25.41;51.32;101068.59;5051608;28;20407;-68
2022/06/26 03:52:03;;;;;;;6.30;5.70;;;;;;;25.46;50.87;101075.66;5046319;28;20855;-67
2022/06/26 03:54:30;;;;;;;5.90;5.35;;;;;;;25.44;51.18;101076.50;5051786;28;20404;-68
2022/06/26 03:56:55;;;;;;;6.20;5.30;;;;;;;25.43;51.30;101080.88;5045723;28;20399;-67
2022/06/26 03:59:23;;;;;;;6.23;5.63;;;;;;;25.45;50.94;101072.97;5032716;28;20878;-68
2022/06/26 04:01:48;;;;;;;5.70;5.20;;;;;;;25.45;51.18;101072.97;5065880;28;20394;-68
2022/06/26 04:04:14;;;;;;;5.97;5.40;;;;;;;25.43;51.26;101074.75;5068182;28;20405;-68
2022/06/26 04:06:39;;;;;;;6.10;5.47;;;;;;;25.42;51.45;101073.00;5049962;28;20430;-68
2022/06/26 04:09:04;;;;;;;5.93;5.32;;;;;;;25.42;51.42;101078.25;5049401;28;20397;-68
2022/06/26 04:11:30;;;;;;;6.33;5.73;;;;;;;25.42;51.08;101078.25;5048685;28;20402;-68
2022/06/26 04:13:55;;;;;;;5.93;5.20;;;;;;;25.44;51.16;101080.00;5046305;28;20391;-68
2022/06/26 04:16:21;;;;;;;7.07;5.60;;;;;;;25.44;51.28;101081.75;5032368;28;20390;-68
2022/06/26 04:18:46;;;;;;;5.87;5.23;;;;;;;25.46;50.80;101085.31;5050939;28;20398;-68
2022/06/26 04:21:14;;;;;;;6.25;5.40;;;;;;;25.45;51.45;101078.25;5047608;28;20724;-68
2022/06/26 04:23:40;;;;;;;6.43;5.00;;;;;;;25.43;51.04;101069.47;5065934;28;20441;-67
2022/06/26 04:26:05;;;;;;;6.13;5.30;;;;;;;25.45;51.23;101068.63;5053244;28;20860;-68
2022/06/26 04:28:32;;;;;;;6.10;5.50;;;;;;;25.39;51.57;101060.69;5049070;28;20445;-68
2022/06/26 04:30:57;;;;;;;5.78;5.18;;;;;;;25.47;51.04;101068.59;5050335;28;20397;-68
2022/06/26 04:33:22;;;;;;;5.73;5.13;;;;;;;25.46;50.99;101069.47;5035806;28;20739;-69
2022/06/26 04:35:48;;;;;;;6.27;5.67;;;;;;;25.47;51.53;101065.97;5043902;28;20428;-68
2022/06/26 04:38:13;;;;;;;6.33;5.73;;;;;;;25.46;52.10;101069.47;5055129;28;20425;-69
2022/06/26 04:40:38;;;;;;;6.97;6.20;;;;;;;25.45;51.21;101062.44;5037248;28;20393;-67
2022/06/26 04:43:04;;;;;;;7.47;5.57;;;;;;;25.46;51.91;101074.75;5034029;28;20817;-68
2022/06/26 04:45:29;;;;;;;6.55;5.43;;;;;;;25.41;51.00;101065.97;5034903;28;20481;-67
2022/06/26 04:47:58;;;;;;;6.37;5.77;;;;;;;25.46;51.41;101080.03;5054585;28;20429;-68
2022/06/26 04:50:24;;;;;;;7.45;6.10;;;;;;;25.45;51.79;101078.25;5071071;28;20402;-68
2022/06/26 04:52:49;;;;;;;5.70;5.20;;;;;;;25.45;51.46;101079.16;5027056;28;20946;-68
2022/06/26 04:55:15;;;;;;;6.83;6.13;;;;;;;25.47;51.75;101076.50;5050750;28;20916;-68
2022/06/26 04:57:40;;;;;;;6.00;5.50;;;;;;;25.46;51.98;101074.75;5045131;28;21135;-68
2022/06/26 05:00:10;;;;;;;6.47;5.80;;;;;;;25.47;51.33;101081.78;5030519;28;20799;-68
2022/06/26 05:02:36;;;;;;;6.53;5.90;;;;;;;25.49;52.24;101085.28;5049273;28;20447;-68
2022/06/26 05:05:03;;;;;;;6.57;5.93;;;;;;;25.48;52.05;101091.44;5032448;28;20821;-68
2022/06/26 05:07:28;;;;;;;6.68;6.07;;;;;;;25.24;52.58;101059.03;5046666;28;20407;-67
2022/06/26 05:09:53;;;;;;;6.90;6.20;;;;;;;25.46;52.36;101098.50;5030805;28;20394;-68
2022/06/26 05:12:21;;;;;;;7.33;6.53;;;;;;;25.43;51.90;101087.94;5052038;28;20839;-68
2022/06/26 05:14:47;;;;;;;6.70;6.00;;;;;;;25.45;52.19;101088.78;5070427;28;20943;-68
2022/06/26 05:17:14;;;;;;;6.83;6.17;;;;;;;25.48;52.37;101099.34;5046155;28;20395;-68
2022/06/26 05:19:40;;;;;;;6.80;6.15;;;;;;;25.46;52.55;101090.56;5034290;28;20467;-68
2022/06/26 05:22:05;;;;;;;6.43;5.83;;;;;;;25.48;52.42;101104.63;5051509;28;20394;-67
2022/06/26 05:24:30;;;;;;;8.10;6.10;;;;;;;25.46;52.48;101090.56;5046358;28;20389;-67
2022/06/26 05:26:58;;;;;;;6.83;6.23;;;;;;;25.44;51.86;101092.31;5033785;28;20951;-67
2022/06/26 05:29:24;;;;;;;6.65;6.03;;;;;;;25.47;51.81;101092.31;5041719;28;20799;-68
2022/06/26 05:31:50;;;;;;;7.10;5.95;;;;;;;25.31;52.24;101071.28;5027677;28;20400;-68
2022/06/26 05:34:15;;;;;;;6.80;6.10;;;;;;;25.47;51.96;101103.78;5041672;28;20436;-67
2022/06/26 05:36:40;;;;;;;6.67;5.97;;;;;;;25.41;51.14;101089.69;5049582;28;20397;-68
2022/06/26 05:39:06;;;;;;;6.37;5.77;;;;;;;25.45;51.29;101096.69;5049828;28;20754;-67
2022/06/26 05:41:31;;;;;;;6.50;5.88;;;;;;;25.44;51.17;101084.41;5032179;28;20447;-68
2022/06/26 05:43:57;;;;;;;6.80;6.17;;;;;;;25.24;50.99;101048.47;5029096;28;20407;-66
2022/06/26 05:46:23;;;;;;;6.55;5.95;;;;;;;25.48;51.68;101094.09;5046786;28;20406;-68
2022/06/26 05:48:48;;;;;;;6.37;5.77;;;;;;;25.48;51.15;101102.00;5024307;28;20395;-66
2022/06/26 05:51:14;;;;;;;6.60;5.90;;;;;;;25.47;51.51;101092.31;5029988;28;20431;-64
2022/06/26 05:53:39;;;;;;;6.53;5.82;;;;;;;25.53;51.62;101097.56;5033389;28;20946;-64
2022/06/26 05:56:05;;;;;;;6.63;6.00;;;;;;;25.53;51.75;101097.56;5049045;28;20398;-65
2022/06/26 05:58:30;;;;;;;6.30;5.70;;;;;;;25.53;51.92;101097.56;5041325;28;20781;-64
2022/06/26 06:00:56;;;;;;;6.43;5.57;;;;;;;25.49;52.24;101095.84;5028371;28;20424;-62
2022/06/26 06:03:21;;;;;;;7.80;6.27;;;;;;;25.54;52.21;101094.03;5050102;28;20426;-60
2022/06/26 06:05:46;;;;;;;7.17;6.57;;;;;;;25.57;51.83;101094.03;5032577;28;20391;-58
2022/06/26 06:08:12;;;;;;;7.25;6.55;;;;;;;25.62;51.75;101091.38;5048945;28;20433;-62
2022/06/26 06:10:39;;;;;;;8.30;6.73;;;;;;;25.68;51.95;101101.88;5069639;28;20487;-66
2022/06/26 06:13:07;;;;;;;10.95;7.75;;;;;;;25.72;51.50;101097.44;5053734;28;20390;-69
2022/06/26 06:15:33;;;;;;;7.85;6.43;;;;;;;25.72;52.18;101092.16;5046339;28;20394;-64
2022/06/26 06:17:58;;;;;;;6.95;6.22;;;;;;;25.75;51.74;101092.16;5052896;28;20405;-61
2022/06/26 06:20:24;;;;;;;7.03;6.33;;;;;;;25.69;51.75;101087.81;5049464;28;20394;-67
2022/06/26 06:22:59;;;;;;;6.93;6.28;;;;;;;25.72;52.14;101103.63;5045990;28;20473;-62
2022/06/26 06:25:24;;;;;;;7.23;6.53;;;;;;;25.62;52.03;101097.50;5025159;28;20815;-63
2022/06/26 06:27:49;;;;;;;7.03;6.10;;;;;;;25.69;51.57;101108.03;5069835;28;20419;-61
2022/06/26 06:30:18;;;;;;;6.72;6.05;;;;;;;25.67;51.88;101106.25;5035018;28;20950;-64
2022/06/26 06:32:45;;;;;;;6.30;5.75;;;;;;;25.66;51.45;101109.78;5025294;28;20843;-63
2022/06/26 06:35:13;;;;;;;7.05;6.30;;;;;;;25.67;51.73;101106.25;5037729;28;20451;-62
2022/06/26 06:37:39;;;;;;;8.43;5.78;;;;;;;25.69;52.19;101108.91;5018830;28;20429;-62
2022/06/26 06:40:05;;;;;;;6.95;5.88;;;;;;;25.69;52.15;101118.56;5026670;28;20481;-62
2022/06/26 06:42:31;;;;;;;7.07;6.38;;;;;;;25.66;52.55;101128.25;5028438;28;20432;-64
2022/06/26 06:44:56;;;;;;;7.70;6.00;;;;;;;25.45;52.34;101094.06;5023466;28;20456;-61
2022/06/26 06:47:21;;;;;;;6.87;6.17;;;;;;;25.58;52.42;101116.88;5032598;28;20493;-66
2022/06/26 06:49:50;;;;;;;9.20;6.03;;;;;;;25.46;52.48;101098.50;5044060;28;20854;-62
2022/06/26 06:52:15;;;;;;;6.50;5.90;;;;;;;25.53;52.66;101113.38;5047015;28;20381;-62
2022/06/26 06:54:40;;;;;;;8.47;5.93;;;;;;;25.57;52.08;101124.81;5042823;28;20755;-63
2022/06/26 06:57:06;;;;;;;7.07;6.13;;;;;;;25.58;51.92;101132.69;5060872;28;20429;-70
2022/06/26 06:59:33;;;;;;;6.65;6.00;;;;;;;25.55;52.04;101132.72;5049115;28;20486;-62
2022/06/26 07:01:58;;;;;;;6.90;5.90;;;;;;;25.55;52.35;101127.44;5043909;28;20820;-66
2022/06/26 07:04:23;;;;;;;6.80;6.10;;;;;;;25.56;51.97;101134.47;5029715;28;20437;-62
2022/06/26 07:06:49;;;;;;;6.23;5.57;;;;;;;25.42;51.51;101117.81;5045165;28;20394;-61
2022/06/26 07:09:14;;;;;;;6.60;5.90;;;;;;;25.58;52.26;101143.25;5047249;28;20450;-62
2022/06/26 07:11:40;;;;;;;6.70;5.90;;;;;;;25.45;52.02;101128.34;5065980;28;20398;-65
2022/06/26 07:14:06;;;;;;;7.37;5.60;;;;;;;25.60;51.51;101138.84;5044219;28;20394;-61
2022/06/26 07:16:31;;;;;;;6.10;5.32;;;;;;;25.54;51.49;101125.69;5032679;28;20378;-61
2022/06/26 07:18:57;;;;;;;6.35;5.75;;;;;;;25.54;51.84;101125.69;5059917;28;20393;-62
2022/06/26 07:21:22;;;;;;;7.30;5.17;;;;;;;25.60;51.61;101130.94;5044076;28;20402;-61
2022/06/26 07:23:48;;;;;;;7.77;5.23;;;;;;;25.54;51.41;101123.06;5026770;28;20445;-62
2022/06/26 07:26:13;;;;;;;5.40;4.90;;;;;;;25.51;51.77;101130.97;5042062;28;20756;-60
2022/06/26 07:28:39;;;;;;;6.43;5.53;;;;;;;25.54;51.08;101138.88;5020858;28;20481;-64
2022/06/26 07:31:04;;;;;;;5.77;5.17;;;;;;;25.45;51.11;101125.69;5040607;28;20413;-60
2022/06/26 07:36:14;;;;;;;6.28;5.47;;;;;;;25.59;51.90;101147.63;5047004;28;20824;-61
2022/06/26 07:38:39;;;;;;;6.07;5.40;;;;;;;25.58;51.98;101143.25;5044785;28;20393;-63
2022/06/26 07:41:04;;;;;;;8.00;5.33;;;;;;;25.59;51.92;101155.53;5047039;28;20418;-61
2022/06/26 07:43:30;;;;;;;5.68;5.10;;;;;;;25.53;51.41;101145.03;5041046;28;20428;-61
2022/06/26 07:45:56;;;;;;;5.75;5.10;;;;;;;25.60;51.25;101161.72;5026520;28;20405;-61
2022/06/26 07:48:24;;;;;;;6.07;5.20;;;;;;;25.54;51.42;101152.06;5044648;28;20407;-61
2022/06/26 07:50:50;;;;;;;6.63;5.13;;;;;;;25.45;51.10;101141.53;5044336;28;20761;-62
2022/06/26 07:53:15;;;;;;;5.30;4.70;;;;;;;25.58;51.46;101159.06;5041761;28;20393;-64
2022/06/26 07:55:41;;;;;;;5.53;4.80;;;;;;;25.57;51.40;101157.31;5033064;28;20401;-62
2022/06/26 07:58:06;;;;;;;5.63;5.00;;;;;;;25.54;51.36;101157.34;5030713;28;20818;-61
2022/06/26 08:00:34;;;;;;;5.93;4.80;;;;;;;25.56;51.23;101160.84;5027223;28;20387;-65
2022/06/26 08:03:06;;;;;;;5.68;5.00;;;;;;;25.59;51.35;101166.09;5043506;28;20935;-64
2022/06/26 08:05:32;;;;;;;5.50;4.97;;;;;;;25.59;50.25;101166.09;5043813;28;20462;-64
2022/06/26 08:07:57;;;;;;;7.20;5.13;;;;;;;25.56;49.97;101170.53;5043715;28;20754;-62
2022/06/26 08:10:22;;;;;;;6.22;5.00;;;;;;;25.37;49.06;101152.97;5042438;28;20770;-63
2022/06/26 08:12:48;;;;;;;7.40;5.40;;;;;;;25.29;49.13;101146.88;5050041;28;20475;-63
2022/06/26 08:15:13;;;;;;;7.43;5.33;;;;;;;25.47;48.67;101177.59;5029837;28;20504;-62
2022/06/26 08:17:38;;;;;;;8.53;5.57;;;;;;;25.44;48.64;101166.13;5044909;28;20793;-64
2022/06/26 08:20:04;;;;;;;7.43;5.93;;;;;;;25.44;48.98;101171.41;5070934;28;20765;-66
2022/06/26 08:22:30;;;;;;;5.57;5.07;;;;;;;25.52;48.76;101185.47;5051649;28;20487;-58
2022/06/26 08:24:55;;;;;;;5.30;4.80;;;;;;;25.50;48.63;101179.31;5064611;28;20398;-61
2022/06/26 08:27:20;;;;;;;6.53;5.30;;;;;;;25.53;48.59;101176.69;5049280;28;20426;-62
2022/06/26 08:29:46;;;;;;;6.95;5.32;;;;;;;25.57;49.26;101177.56;5045728;28;20456;-60
2022/06/26 08:32:11;;;;;;;7.60;5.30;;;;;;;25.61;48.83;101189.84;5063799;28;20444;-59
2022/06/26 08:34:36;;;;;;;6.77;5.40;;;;;;;25.61;48.62;101180.16;5046584;28;20496;-57
2022/06/26 08:37:02;;;;;;;5.90;5.07;;;;;;;25.64;48.71;101189.81;5030555;28;20386;-57
2022/06/26 08:39:27;;;;;;;6.03;5.20;;;;;;;25.65;48.44;101187.16;5030479;28;20432;-52
2022/06/26 08:41:53;;;;;;;7.10;5.03;;;;;;;25.57;48.94;101177.56;5069112;28;20458;-55
2022/06/26 08:44:19;;;;;;;5.80;4.82;;;;;;;25.65;48.34;101183.66;5067187;28;20418;-55
2022/06/26 08:46:45;;;;;;;5.72;4.95;;;;;;;25.61;47.81;101168.75;5033021;28;20806;-50
2022/06/26 08:49:14;;;;;;;6.60;5.10;;;;;;;25.72;48.05;101193.31;5017952;28;20402;-56
2022/06/26 08:51:44;;;;;;;4.90;4.40;;;;;;;25.73;47.89;101188.88;5065585;28;20920;-54
2022/06/26 08:54:12;;;;;;;5.47;3.87;;;;;;;25.59;46.38;101168.72;5033406;28;20747;-54
2022/06/26 08:56:39;;;;;;;4.32;3.85;;;;;;;25.57;46.63;101165.22;5034975;28;20451;-61
2022/06/26 08:59:05;;;;;;;6.90;4.47;;;;;;;25.60;47.34;101173.13;5034086;28;20445;-55
2022/06/26 09:01:30;;;;;;;5.25;3.53;;;;;;;25.69;46.70;101184.50;5029952;28;20471;-56
2022/06/26 09:03:58;;;;;;;5.90;3.50;;;;;;;25.66;45.05;101183.63;5060542;28;20415;-65
2022/06/26 09:06:23;;;;;;;5.10;3.72;;;;;;;25.74;46.53;101196.81;5049693;28;20394;-63
2022/06/26 09:08:49;;;;;;;5.10;3.50;;;;;;;25.74;46.45;101195.91;5050720;28;20485;-66
2022/06/26 09:11:16;;;;;;;4.20;3.00;;;;;;;25.69;45.39;101193.31;5043857;28;20401;-57
2022/06/26 09:13:43;;;;;;;5.35;3.30;;;;;;;25.65;45.18;101176.63;5045506;28;20397;-63
2022/06/26 09:16:12;;;;;;;4.10;3.50;;;;;;;25.74;45.19;101193.28;5062577;28;20547;-56
2022/06/26 09:18:40;;;;;;;7.65;3.63;;;;;;;25.66;44.90;101186.28;5036630;28;20389;-64
2022/06/26 09:21:07;;;;;;;4.10;3.40;;;;;;;25.76;45.42;101194.16;5035217;28;20408;-58
2022/06/26 09:23:34;;;;;;;6.20;3.50;;;;;;;25.76;45.32;101188.88;5014622;28;20380;-65
2022/06/26 09:26:00;;;;;;;3.78;3.30;;;;;;;25.76;45.11;101204.69;5035232;28;20398;-60
2022/06/26 09:28:27;;;;;;;4.65;3.53;;;;;;;25.60;45.56;101172.25;5026569;28;20803;-65
2022/06/26 09:30:55;;;;;;;4.90;3.40;;;;;;;25.76;45.47;101204.69;5049942;28;20425;-59
2022/06/26 09:33:26;;;;;;;4.68;3.60;;;;;;;25.76;46.10;101204.69;5056497;28;20899;-58
2022/06/26 09:35:52;;;;;;;4.10;3.40;;;;;;;25.62;45.69;101187.19;5023648;28;20427;-58
2022/06/26 09:38:26;;;;;;;4.70;3.60;;;;;;;25.41;46.06;101152.97;5027375;28;20477;-65
2022/06/26 09:40:54;;;;;;;7.63;3.67;;;;;;;25.62;46.62;101192.44;5048901;28;20399;-58
2022/06/26 09:43:26;;;;;;;7.45;3.97;;;;;;;25.78;45.17;101216.13;5047935;28;20424;-65
2022/06/26 09:45:54;;;;;;;4.47;3.30;;;;;;;25.71;45.21;101206.47;5045092;28;20914;-61
2022/06/26 09:53:41;;;;;;;4.50;3.20;;;;;;;25.79;45.03;101220.50;4880616;26;20412;-62
2022/06/26 09:56:07;;;;;;;13.95;6.10;;;;;;;25.83;47.33;101221.38;5063828;28;20426;-63
2022/06/26 09:58:32;;;;;;;22.05;10.27;;;;;;;25.91;46.72;101215.16;5039890;28;20681;-56
2022/06/26 10:06:34;;;;;;;17.30;10.90;;;;;;;26.06;48.77;101231.81;5065523;28;20492;-62
2022/06/26 10:09:02;;;;;;;21.45;11.52;;;;;;;26.04;49.58;101230.97;5061686;28;20890;-62
2022/06/26 10:11:30;;;;;;;20.70;10.82;;;;;;;26.07;49.78;101236.22;5060590;28;20487;-62
2022/06/26 10:14:05;;;;;;;11.95;7.22;;;;;;;26.05;48.45;101238.84;5049037;28;20400;-65
2022/06/26 10:16:30;;;;;;;10.75;6.90;;;;;;;26.09;49.11;101245.00;5066247;28;20377;-59
2022/06/26 10:19:27;;;;;;;12.63;6.93;;;;;;;26.09;48.36;101245.00;5066031;28;20976;-59
2022/06/26 10:21:53;;;;;;;9.38;5.13;;;;;;;26.08;47.63;101243.25;5069550;28;20460;-65
2022/06/26 10:24:18;;;;;;;8.90;5.10;;;;;;;26.09;47.10;101250.28;5043898;28;20905;-58
2022/06/26 10:26:55;;;;;;;4.90;4.17;;;;;;;26.11;47.48;101248.50;5065559;28;20392;-59
2022/06/26 10:29:37;;;;;;;6.85;4.57;;;;;;;26.08;47.00;101253.81;5049900;28;20397;-60
2022/06/26 10:32:05;;;;;;;6.90;3.90;;;;;;;26.08;47.33;101259.09;5053149;28;20401;-57
2022/06/26 10:34:31;;;;;;;5.63;4.03;;;;;;;26.05;46.50;101259.09;5038340;28;20409;-61
2022/06/26 10:37:04;;;;;;;4.75;3.85;;;;;;;26.03;47.16;101266.16;5046952;28;20403;-58
2022/06/26 10:39:42;;;;;;;4.50;3.60;;;;;;;26.03;46.65;101271.44;5070985;28;20418;-59
2022/06/26 10:45:06;;;;;;;5.50;3.40;;;;;;;26.00;46.74;101268.81;5079031;28;20403;-60
2022/06/26 10:48:10;;;;;;;4.35;3.22;;;;;;;26.01;46.77;101273.19;5066451;28;20410;-61
2022/06/26 10:50:41;;;;;;;5.15;3.83;;;;;;;26.04;45.94;101268.75;5065530;28;20392;-60
2022/06/26 10:53:32;;;;;;;4.90;3.67;;;;;;;26.06;46.61;101276.69;5068970;28;20407;-60
2022/06/26 10:56:00;;;;;;;5.25;3.28;;;;;;;26.06;47.05;101271.41;5068059;28;20390;-59
2022/06/26 10:58:27;;;;;;;5.00;3.60;;;;;;;26.05;46.82;101274.94;5046597;28;20467;-58
2022/06/26 11:00:57;;;;;;;5.82;4.07;;;;;;;26.03;46.44;101274.06;5070017;28;20411;-56
2022/06/26 11:03:23;;;;;;;5.55;3.60;;;;;;;26.01;45.96;101267.91;5053271;28;20380;-58
2022/06/26 11:06:06;;;;;;;6.07;3.75;;;;;;;26.01;46.23;101283.75;5053560;28;20457;-57
2022/06/26 11:08:35;;;;;;;3.90;3.42;;;;;;;26.03;45.78;101277.56;5052906;28;20486;-59
2022/06/26 11:11:07;;;;;;;4.70;3.45;;;;;;;26.02;46.41;101269.69;5053130;28;20408;-58
2022/06/26 11:13:35;;;;;;;4.65;3.40;;;;;;;26.01;46.33;101278.47;5049719;28;20382;-59
2022/06/26 11:16:00;;;;;;;6.90;3.67;;;;;;;25.99;46.09;101274.97;5050784;28;20871;-54
2022/06/26 11:18:34;;;;;;;6.25;3.65;;;;;;;26.01;46.69;101283.75;5077960;28;20403;-56
2022/06/26 11:21:01;;;;;;;10.73;5.10;;;;;;;26.03;46.40;101289.91;5039787;28;20741;-56
2022/06/26 11:23:32;;;;;;;6.25;3.78;;;;;;;26.03;47.10;101282.84;5063613;28;20398;-66
2022/06/26 11:26:27;;;;;;;7.43;4.00;;;;;;;26.03;47.07;101282.00;5061148;28;20498;-48
2022/06/26 11:29:01;;;;;;;6.88;4.10;;;;;;;26.01;47.29;101278.47;5051902;28;20403;-54
2022/06/26 11:31:32;;;;;;;12.13;4.65;;;;;;;26.06;47.50;101287.25;5058166;28;20386;-54
2022/06/26 11:34:12;;;;;;;5.85;4.20;;;;;;;26.09;47.93;101292.50;5054534;28;20391;-54
2022/06/26 11:36:58;;;;;;;8.82;4.80;;;;;;;26.08;48.18;101296.03;5071537;28;20419;-53
2022/06/26 11:39:37;;;;;;;7.97;4.60;;;;;;;26.06;47.75;101287.25;5064846;28;20864;-56
2022/06/26 11:42:15;;;;;;;9.07;4.80;;;;;;;26.08;48.16;101290.75;5075111;28;20411;-51
2022/06/26 11:44:51;;;;;;;10.50;4.82;;;;;;;26.09;48.54;101289.88;5078602;28;20427;-54
2022/06/26 11:47:21;;;;;;;5.28;4.50;;;;;;;26.09;48.24;101284.59;5075460;28;20407;-57